Time;durP1;ratioP1;P1;durP2;ratioP2;P2;SDS_P1;SDS_P2;PMS_P1;PMS_P2;Temp;Humidity;BMP_temperature;BMP_pressure;BME280_temperature;BME280_humidity;BME280_pressure;Samples;Min_cycle;Max_cycle;Signal;HPM_P1;HPM_P2
2022/09/07 00:02:12;;;;;;;20.23;4.95;;;;;;;;;;5010745;28;20058;-64
2022/09/07 00:04:38;;;;;;;22.08;4.20;;;;;;;;;;5010307;28;20505;-64
2022/09/07 00:07:04;;;;;;;25.95;4.30;;;;;;;;;;5010119;28;20030;-64
2022/09/07 00:09:30;;;;;;;20.40;4.15;;;;;;;;;;5043203;28;20176;-64
2022/09/07 00:11:56;;;;;;;29.08;5.18;;;;;;;;;;5009409;28;20520;-64
2022/09/07 00:14:22;;;;;;;31.48;4.53;;;;;;;;;;4999635;28;20064;-64
2022/09/07 00:16:49;;;;;;;32.65;5.10;;;;;;;;;;5002081;28;20022;-64
2022/09/07 00:19:15;;;;;;;26.67;4.30;;;;;;;;;;4998884;28;20405;-64
2022/09/07 00:21:41;;;;;;;33.22;5.72;;;;;;;;;;5015792;28;20022;-64
2022/09/07 00:24:07;;;;;;;21.70;4.57;;;;;;;;;;5010244;28;20474;-64
2022/09/07 00:26:34;;;;;;;27.38;5.47;;;;;;;;;;5008241;28;20121;-64
2022/09/07 00:29:01;;;;;;;28.55;5.80;;;;;;;;;;5009539;28;20501;-64
2022/09/07 00:31:28;;;;;;;32.85;4.85;;;;;;;;;;5011683;28;20040;-64
2022/09/07 00:33:56;;;;;;;35.85;5.00;;;;;;;;;;5011968;28;20026;-64
2022/09/07 00:36:22;;;;;;;34.00;5.28;;;;;;;;;;5011475;28;20021;-64
2022/09/07 00:38:49;;;;;;;26.25;4.90;;;;;;;;;;5012249;28;20471;-64
2022/09/07 00:41:16;;;;;;;30.33;4.72;;;;;;;;;;5013783;28;20029;-64
2022/09/07 00:43:53;;;;;;;30.13;6.88;;;;;;;;;;5015432;28;20461;-64
2022/09/07 00:46:23;;;;;;;26.60;4.95;;;;;;;;;;5015195;28;20030;-64
2022/09/07 00:49:09;;;;;;;33.33;4.28;;;;;;;;;;5015127;28;20454;-64
2022/09/07 00:51:40;;;;;;;30.75;4.65;;;;;;;;;;5015408;28;20038;-64
2022/09/07 00:54:11;;;;;;;27.88;4.72;;;;;;;;;;5015619;28;20036;-64
2022/09/07 00:56:39;;;;;;;18.85;3.90;;;;;;;;;;5010454;28;20030;-64
2022/09/07 00:59:06;;;;;;;23.38;4.32;;;;;;;;;;5006171;28;20026;-64
2022/09/07 01:01:33;;;;;;;28.65;4.88;;;;;;;;;;5013318;28;20034;-64
2022/09/07 01:04:00;;;;;;;31.75;5.15;;;;;;;;;;5014891;28;20083;-64
2022/09/07 01:06:28;;;;;;;22.13;4.22;;;;;;;;;;5014672;28;20529;-64
2022/09/07 01:08:56;;;;;;;24.50;4.80;;;;;;;;;;5014776;28;20057;-64
2022/09/07 01:11:23;;;;;;;23.58;4.93;;;;;;;;;;5014353;28;20026;-64
2022/09/07 01:13:50;;;;;;;28.33;5.03;;;;;;;;;;5021812;28;20612;-64
2022/09/07 01:16:22;;;;;;;40.65;6.05;;;;;;;;;;5002075;28;20117;-64
2022/09/07 01:19:06;;;;;;;29.70;5.53;;;;;;;;;;5011496;28;20030;-64
2022/09/07 01:21:33;;;;;;;29.42;4.78;;;;;;;;;;5017529;28;20017;-64
2022/09/07 01:24:04;;;;;;;25.52;4.15;;;;;;;;;;5017653;28;20033;-64
2022/09/07 01:26:43;;;;;;;20.85;4.40;;;;;;;;;;5015772;28;20026;-64
2022/09/07 01:29:24;;;;;;;22.20;5.00;;;;;;;;;;5014157;28;20069;-64
2022/09/07 01:32:13;;;;;;;28.58;4.47;;;;;;;;;;5014734;28;20521;-64
2022/09/07 01:34:41;;;;;;;27.42;5.20;;;;;;;;;;5003716;28;20399;-64
2022/09/07 01:37:07;;;;;;;23.35;4.78;;;;;;;;;;5014183;28;20018;-64
2022/09/07 01:39:41;;;;;;;28.08;5.47;;;;;;;;;;5014384;28;20033;-64
2022/09/07 01:42:12;;;;;;;25.40;4.63;;;;;;;;;;5023498;28;20013;-64
2022/09/07 01:44:41;;;;;;;32.22;5.38;;;;;;;;;;5024005;28;20458;-64
2022/09/07 01:47:28;;;;;;;34.67;5.43;;;;;;;;;;5005359;28;20022;-64
2022/09/07 01:49:58;;;;;;;28.45;4.82;;;;;;;;;;5017848;28;20469;-64
2022/09/07 01:52:36;;;;;;;29.17;5.07;;;;;;;;;;5005315;28;20029;-64
2022/09/07 01:55:06;;;;;;;23.95;4.43;;;;;;;;;;5013908;28;20080;-64
2022/09/07 01:57:36;;;;;;;30.65;5.78;;;;;;;;;;5010884;28;20113;-64
2022/09/07 02:00:07;;;;;;;24.50;3.97;;;;;;;;;;5018115;28;20026;-64
2022/09/07 02:02:41;;;;;;;25.63;5.60;;;;;;;;;;4996768;28;20058;-64
2022/09/07 02:05:10;;;;;;;29.70;4.53;;;;;;;;;;5001982;28;20122;-64
2022/09/07 02:07:38;;;;;;;32.85;4.95;;;;;;;;;;5013387;28;20045;-64
2022/09/07 02:10:05;;;;;;;26.63;4.25;;;;;;;;;;5013690;28;20029;-64
2022/09/07 02:12:45;;;;;;;26.17;4.80;;;;;;;;;;5004956;28;20085;-64
2022/09/07 02:15:14;;;;;;;22.10;4.32;;;;;;;;;;5013801;28;20037;-64
2022/09/07 02:17:46;;;;;;;21.83;4.75;;;;;;;;;;5013092;28;20084;-64
2022/09/07 02:20:14;;;;;;;21.97;3.73;;;;;;;;;;5015162;28;20462;-64
2022/09/07 02:22:43;;;;;;;20.33;4.45;;;;;;;;;;5018068;28;20075;-64
2022/09/07 02:25:10;;;;;;;21.15;4.03;;;;;;;;;;5021295;28;20065;-64
2022/09/07 02:27:42;;;;;;;19.33;4.20;;;;;;;;;;5010159;28;20053;-64
2022/09/07 02:30:08;;;;;;;23.02;3.38;;;;;;;;;;5006378;28;20030;-64
2022/09/07 02:32:34;;;;;;;30.77;5.55;;;;;;;;;;5012682;28;20022;-64
2022/09/07 02:35:01;;;;;;;24.42;3.90;;;;;;;;;;5013231;28;20418;-64
2022/09/07 02:37:28;;;;;;;23.02;4.55;;;;;;;;;;5003298;28;20018;-64
2022/09/07 02:39:54;;;;;;;25.85;5.07;;;;;;;;;;5013204;28;20064;-64
2022/09/07 02:42:20;;;;;;;23.20;4.32;;;;;;;;;;5003065;28;20025;-64
2022/09/07 02:44:47;;;;;;;19.55;4.60;;;;;;;;;;5019663;28;20033;-64
2022/09/07 02:47:38;;;;;;;22.77;3.88;;;;;;;;;;5012917;28;20037;-64
2022/09/07 02:50:23;;;;;;;20.02;3.72;;;;;;;;;;5011724;28;20038;-64
2022/09/07 02:53:08;;;;;;;16.77;4.35;;;;;;;;;;5013093;28;20387;-64
2022/09/07 02:55:34;;;;;;;17.60;3.53;;;;;;;;;;5002181;28;20030;-64
2022/09/07 02:58:07;;;;;;;13.05;3.80;;;;;;;;;;5012969;28;20033;-64
2022/09/07 03:00:36;;;;;;;24.08;4.57;;;;;;;;;;5020660;28;20080;-64
2022/09/07 03:03:09;;;;;;;24.23;4.30;;;;;;;;;;5010119;28;20045;-64
2022/09/07 03:05:47;;;;;;;17.08;3.70;;;;;;;;;;5010864;28;20188;-64
2022/09/07 03:08:15;;;;;;;25.30;3.67;;;;;;;;;;5011673;28;20049;-64
2022/09/07 03:10:42;;;;;;;22.80;3.90;;;;;;;;;;5012696;28;20037;-64
2022/09/07 03:13:08;;;;;;;18.30;3.63;;;;;;;;;;5012686;28;20075;-64
2022/09/07 03:15:34;;;;;;;19.50;3.50;;;;;;;;;;5012285;28;20093;-65
2022/09/07 03:18:00;;;;;;;15.57;2.83;;;;;;;;;;5012767;28;20033;-64
2022/09/07 03:20:26;;;;;;;23.60;4.05;;;;;;;;;;5012476;28;20056;-64
2022/09/07 03:22:52;;;;;;;19.60;3.10;;;;;;;;;;5012408;28;20037;-64
2022/09/07 03:25:19;;;;;;;13.90;3.30;;;;;;;;;;5018093;28;20080;-64
2022/09/07 03:27:45;;;;;;;16.75;3.55;;;;;;;;;;5012334;28;20156;-64
2022/09/07 03:30:12;;;;;;;16.83;3.13;;;;;;;;;;5012611;28;20052;-64
2022/09/07 03:32:38;;;;;;;21.50;3.45;;;;;;;;;;5012284;28;20026;-64
2022/09/07 03:35:06;;;;;;;17.77;3.25;;;;;;;;;;5012486;28;20378;-64
2022/09/07 03:37:32;;;;;;;14.68;3.20;;;;;;;;;;5011462;28;20018;-64
2022/09/07 03:39:58;;;;;;;19.75;3.15;;;;;;;;;;5002266;28;20058;-64
2022/09/07 03:42:24;;;;;;;10.65;2.63;;;;;;;;;;5012578;28;20072;-64
2022/09/07 03:44:50;;;;;;;16.55;3.83;;;;;;;;;;5012002;28;20550;-64
2022/09/07 03:47:17;;;;;;;13.07;3.40;;;;;;;;;;5010868;28;20034;-64
2022/09/07 03:49:43;;;;;;;14.30;3.42;;;;;;;;;;5006789;28;20088;-64
2022/09/07 03:52:09;;;;;;;24.15;3.13;;;;;;;;;;5012640;28;20091;-64
2022/09/07 03:54:35;;;;;;;22.13;3.50;;;;;;;;;;5012277;28;20478;-64
2022/09/07 03:57:02;;;;;;;21.30;4.57;;;;;;;;;;5011738;28;20034;-64
2022/09/07 03:59:28;;;;;;;14.57;3.15;;;;;;;;;;5011998;28;20014;-64
2022/09/07 04:01:54;;;;;;;26.17;3.45;;;;;;;;;;5010690;28;20061;-64
2022/09/07 04:04:20;;;;;;;23.17;4.47;;;;;;;;;;5008447;28;20417;-64
2022/09/07 04:06:46;;;;;;;22.83;3.95;;;;;;;;;;5007567;28;20121;-64
2022/09/07 04:09:13;;;;;;;19.35;3.92;;;;;;;;;;5011756;28;20042;-64
2022/09/07 04:11:39;;;;;;;20.27;4.90;;;;;;;;;;5010857;28;20478;-64
2022/09/07 04:14:06;;;;;;;24.95;4.13;;;;;;;;;;5012567;28;20030;-64
2022/09/07 04:16:32;;;;;;;24.25;3.72;;;;;;;;;;5015942;28;20043;-64
2022/09/07 04:18:58;;;;;;;22.63;3.75;;;;;;;;;;5014436;28;20029;-64
2022/09/07 04:21:26;;;;;;;24.70;3.75;;;;;;;;;;5013993;28;20025;-64
2022/09/07 04:23:52;;;;;;;24.48;4.55;;;;;;;;;;5013053;28;20033;-64
2022/09/07 04:26:20;;;;;;;30.70;3.88;;;;;;;;;;5014762;28;20052;-64
2022/09/07 04:28:47;;;;;;;20.80;4.00;;;;;;;;;;5013431;28;20144;-64
2022/09/07 04:31:14;;;;;;;25.85;4.38;;;;;;;;;;5015902;28;20425;-64
2022/09/07 04:33:41;;;;;;;20.42;4.35;;;;;;;;;;5015141;28;20462;-64
2022/09/07 04:36:07;;;;;;;25.42;3.65;;;;;;;;;;5013965;28;20429;-64
2022/09/07 04:38:33;;;;;;;25.27;3.70;;;;;;;;;;5017941;28;20028;-64
2022/09/07 04:41:08;;;;;;;28.88;4.82;;;;;;;;;;5014181;28;20058;-64
2022/09/07 04:43:34;;;;;;;20.58;3.58;;;;;;;;;;5013639;28;20037;-64
2022/09/07 04:46:26;;;;;;;22.50;3.88;;;;;;;;;;5014667;28;20030;-64
2022/09/07 04:48:53;;;;;;;26.38;3.65;;;;;;;;;;5001664;28;20056;-64
2022/09/07 04:51:20;;;;;;;31.83;3.85;;;;;;;;;;5011950;28;20034;-64
2022/09/07 04:53:51;;;;;;;24.17;4.47;;;;;;;;;;5012351;28;20044;-64
2022/09/07 04:56:17;;;;;;;26.27;4.55;;;;;;;;;;5013595;28;20080;-64
2022/09/07 04:58:44;;;;;;;26.90;3.83;;;;;;;;;;5013120;28;20025;-64
2022/09/07 05:01:12;;;;;;;37.25;4.10;;;;;;;;;;5009384;28;20056;-64
2022/09/07 05:03:38;;;;;;;17.90;3.42;;;;;;;;;;5014044;28;20080;-64
2022/09/07 05:06:06;;;;;;;20.50;3.90;;;;;;;;;;5010299;28;20663;-64
2022/09/07 05:08:36;;;;;;;17.40;2.97;;;;;;;;;;5012106;28;20069;-64
2022/09/07 05:11:02;;;;;;;26.35;3.78;;;;;;;;;;5014328;28;20041;-64
2022/09/07 05:13:30;;;;;;;21.80;3.25;;;;;;;;;;5013733;28;20040;-64
2022/09/07 05:15:56;;;;;;;28.25;5.93;;;;;;;;;;5012367;28;20030;-64
2022/09/07 05:18:22;;;;;;;21.05;3.67;;;;;;;;;;5012836;28;20041;-64
2022/09/07 05:20:48;;;;;;;24.20;3.85;;;;;;;;;;5012765;28;20026;-64
2022/09/07 05:23:15;;;;;;;20.27;4.43;;;;;;;;;;5014039;28;20083;-64
2022/09/07 05:25:44;;;;;;;25.77;4.25;;;;;;;;;;5014961;28;20457;-65
2022/09/07 05:28:11;;;;;;;26.77;3.75;;;;;;;;;;5013595;28;20032;-65
2022/09/07 05:30:37;;;;;;;18.10;3.75;;;;;;;;;;5010644;28;20053;-65
2022/09/07 05:33:03;;;;;;;21.52;3.55;;;;;;;;;;5011186;28;20124;-65
2022/09/07 05:35:30;;;;;;;22.92;3.50;;;;;;;;;;5007856;28;20029;-65
2022/09/07 05:37:56;;;;;;;26.85;4.10;;;;;;;;;;5004184;28;20022;-65
2022/09/07 05:40:22;;;;;;;26.98;3.95;;;;;;;;;;5012333;28;20057;-65
2022/09/07 05:42:48;;;;;;;17.45;3.42;;;;;;;;;;5014306;28;20026;-65
2022/09/07 05:45:14;;;;;;;21.52;3.88;;;;;;;;;;5012359;28;20041;-65
2022/09/07 05:47:40;;;;;;;19.30;3.15;;;;;;;;;;5011376;28;20061;-65
2022/09/07 05:50:08;;;;;;;29.63;3.67;;;;;;;;;;5010972;28;20097;-65
2022/09/07 05:52:34;;;;;;;28.00;4.20;;;;;;;;;;5013850;28;20578;-66
2022/09/07 05:55:00;;;;;;;23.23;5.70;;;;;;;;;;5012467;28;20025;-66
2022/09/07 05:57:27;;;;;;;24.60;3.97;;;;;;;;;;5010063;28;20022;-66
2022/09/07 05:59:53;;;;;;;17.70;3.15;;;;;;;;;;5010089;28;20037;-66
2022/09/07 06:02:19;;;;;;;22.88;3.75;;;;;;;;;;5012447;28;20100;-66
2022/09/07 06:04:46;;;;;;;36.13;4.28;;;;;;;;;;5011117;28;20034;-66
2022/09/07 06:07:13;;;;;;;18.85;3.15;;;;;;;;;;5012717;28;20042;-65
2022/09/07 06:09:39;;;;;;;19.23;3.42;;;;;;;;;;5014662;28;20053;-65
2022/09/07 06:12:06;;;;;;;20.70;3.15;;;;;;;;;;5011869;28;20049;-65
2022/09/07 06:14:32;;;;;;;21.85;4.13;;;;;;;;;;5012071;28;20105;-65
2022/09/07 06:16:58;;;;;;;24.25;3.72;;;;;;;;;;5002746;28;20057;-65
2022/09/07 06:19:24;;;;;;;22.13;3.50;;;;;;;;;;5001750;28;20046;-65
2022/09/07 06:21:51;;;;;;;21.33;3.45;;;;;;;;;;4999742;28;20058;-65
2022/09/07 06:24:17;;;;;;;22.38;3.88;;;;;;;;;;5002748;28;20026;-65
2022/09/07 06:26:43;;;;;;;14.23;3.60;;;;;;;;;;5005699;28;20446;-65
2022/09/07 06:29:09;;;;;;;23.02;4.07;;;;;;;;;;5004233;28;20026;-65
2022/09/07 06:31:36;;;;;;;20.60;3.95;;;;;;;;;;5006946;28;20030;-65
2022/09/07 06:34:02;;;;;;;26.27;4.13;;;;;;;;;;5009454;28;20034;-65
2022/09/07 06:36:28;;;;;;;26.70;4.07;;;;;;;;;;5012987;28;20088;-65
2022/09/07 06:38:57;;;;;;;16.45;5.30;;;;;;;;;;5006309;28;20072;-65
2022/09/07 06:41:25;;;;;;;20.35;3.55;;;;;;;;;;5007166;28;20426;-65
2022/09/07 06:43:51;;;;;;;36.13;4.30;;;;;;;;;;5003634;28;20153;-65
2022/09/07 06:46:17;;;;;;;31.10;4.50;;;;;;;;;;5004938;28;20030;-65
2022/09/07 06:48:43;;;;;;;19.90;3.97;;;;;;;;;;5010876;28;20026;-65
2022/09/07 06:51:17;;;;;;;14.90;2.90;;;;;;;;;;5009419;28;20036;-65
2022/09/07 06:53:44;;;;;;;20.20;4.40;;;;;;;;;;5006843;28;20034;-65
2022/09/07 06:56:12;;;;;;;29.63;4.35;;;;;;;;;;5007512;28;20061;-65
2022/09/07 06:58:38;;;;;;;25.35;4.22;;;;;;;;;;5000432;28;20034;-65
2022/09/07 07:01:14;;;;;;;33.47;4.68;;;;;;;;;;5008594;28;20026;-65
2022/09/07 07:03:41;;;;;;;23.13;4.88;;;;;;;;;;5008532;28;20061;-65
2022/09/07 07:06:07;;;;;;;22.45;3.83;;;;;;;;;;5008409;28;20502;-65
2022/09/07 07:08:34;;;;;;;26.25;4.18;;;;;;;;;;4999618;28;20046;-65
2022/09/07 07:11:01;;;;;;;31.17;4.10;;;;;;;;;;4998251;28;20597;-65
2022/09/07 07:13:27;;;;;;;23.40;3.47;;;;;;;;;;5003112;28;20068;-65
2022/09/07 07:16:00;;;;;;;22.55;4.30;;;;;;;;;;5008407;28;20551;-65
2022/09/07 07:18:26;;;;;;;30.55;4.95;;;;;;;;;;5000209;28;20173;-65
2022/09/07 07:20:52;;;;;;;23.10;3.83;;;;;;;;;;5006547;28;20033;-65
2022/09/07 07:23:18;;;;;;;26.33;3.67;;;;;;;;;;5008236;28;20120;-65
2022/09/07 07:25:44;;;;;;;20.92;3.50;;;;;;;;;;5007439;28;20558;-65
2022/09/07 07:28:11;;;;;;;29.40;3.50;;;;;;;;;;5008461;28;20018;-65
2022/09/07 07:30:37;;;;;;;26.80;4.20;;;;;;;;;;5002766;28;20028;-65
2022/09/07 07:33:04;;;;;;;24.92;3.83;;;;;;;;;;5001317;28;20038;-65
2022/09/07 07:35:30;;;;;;;21.17;4.32;;;;;;;;;;5004371;28;20038;-65
2022/09/07 07:37:56;;;;;;;28.65;4.00;;;;;;;;;;5004127;28;20045;-65
2022/09/07 07:40:22;;;;;;;22.63;4.35;;;;;;;;;;5008992;28;20124;-65
2022/09/07 07:42:48;;;;;;;22.20;4.30;;;;;;;;;;5004973;28;20034;-65
2022/09/07 07:45:15;;;;;;;22.65;3.92;;;;;;;;;;5006886;28;20056;-65
2022/09/07 07:47:41;;;;;;;22.38;4.07;;;;;;;;;;5003965;28;20026;-65
2022/09/07 07:50:07;;;;;;;29.38;5.70;;;;;;;;;;5009312;28;20042;-65
2022/09/07 07:52:35;;;;;;;16.42;3.85;;;;;;;;;;5013082;28;20044;-65
2022/09/07 07:55:01;;;;;;;25.75;4.22;;;;;;;;;;5007421;28;20535;-65
2022/09/07 07:57:28;;;;;;;18.80;4.13;;;;;;;;;;5006277;28;20018;-65
2022/09/07 07:59:54;;;;;;;24.75;3.85;;;;;;;;;;5005782;28;20037;-65
2022/09/07 08:02:20;;;;;;;21.30;3.90;;;;;;;;;;5010371;28;20053;-65
2022/09/07 08:04:46;;;;;;;13.40;3.58;;;;;;;;;;5002406;28;20054;-65
2022/09/07 08:07:12;;;;;;;24.50;3.92;;;;;;;;;;5007152;28;20520;-65
2022/09/07 08:09:42;;;;;;;15.98;3.45;;;;;;;;;;5008188;28;20034;-65
2022/09/07 08:12:10;;;;;;;19.25;3.55;;;;;;;;;;5010535;28;20112;-65
2022/09/07 08:14:42;;;;;;;25.95;4.78;;;;;;;;;;5012703;28;20026;-65
2022/09/07 08:17:12;;;;;;;25.65;3.92;;;;;;;;;;5010553;28;20022;-65
2022/09/07 08:19:38;;;;;;;23.25;3.90;;;;;;;;;;5000523;28;20487;-65
2022/09/07 08:22:04;;;;;;;19.65;3.83;;;;;;;;;;5007740;28;20037;-65
2022/09/07 08:24:31;;;;;;;22.17;3.80;;;;;;;;;;5013688;28;20030;-65
2022/09/07 08:26:57;;;;;;;20.98;2.88;;;;;;;;;;5012780;28;20034;-65
2022/09/07 08:29:23;;;;;;;22.77;3.70;;;;;;;;;;5009283;28;20052;-65
2022/09/07 08:31:50;;;;;;;19.58;3.55;;;;;;;;;;5013623;28;20481;-65
2022/09/07 08:34:16;;;;;;;24.30;3.42;;;;;;;;;;5009032;28;20054;-65
2022/09/07 08:36:42;;;;;;;19.80;3.50;;;;;;;;;;5007303;28;20018;-65
2022/09/07 08:39:09;;;;;;;24.92;3.38;;;;;;;;;;5008921;28;20479;-65
2022/09/07 08:41:44;;;;;;;19.90;3.83;;;;;;;;;;5008074;28;20418;-65
2022/09/07 08:44:13;;;;;;;22.05;3.58;;;;;;;;;;5008450;28;20042;-65
2022/09/07 08:46:44;;;;;;;27.25;4.63;;;;;;;;;;5009796;28;20424;-65
2022/09/07 08:49:30;;;;;;;14.82;4.47;;;;;;;;;;5013605;28;20458;-65
2022/09/07 08:51:58;;;;;;;20.65;3.17;;;;;;;;;;5004405;28;20084;-65
2022/09/07 08:54:24;;;;;;;20.23;3.60;;;;;;;;;;5012877;28;20034;-65
2022/09/07 08:56:52;;;;;;;20.67;3.67;;;;;;;;;;5009372;28;20127;-65
2022/09/07 08:59:23;;;;;;;16.42;3.10;;;;;;;;;;5011493;28;20083;-65
2022/09/07 09:01:50;;;;;;;19.88;3.78;;;;;;;;;;5006212;28;20031;-65
2022/09/07 09:04:26;;;;;;;12.43;2.95;;;;;;;;;;5006018;28;20133;-65
2022/09/07 09:07:01;;;;;;;14.52;3.20;;;;;;;;;;4999612;28;20045;-65
2022/09/07 09:09:33;;;;;;;15.82;2.90;;;;;;;;;;5000683;28;20044;-65
2022/09/07 09:12:09;;;;;;;16.60;3.08;;;;;;;;;;5000464;28;20041;-65
2022/09/07 09:14:38;;;;;;;34.83;4.13;;;;;;;;;;5009916;28;20084;-65
2022/09/07 09:17:08;;;;;;;18.05;3.85;;;;;;;;;;5006673;28;20026;-65
2022/09/07 09:19:44;;;;;;;20.92;2.78;;;;;;;;;;5009603;28;20100;-65
2022/09/07 09:22:15;;;;;;;21.52;3.30;;;;;;;;;;5007402;28;20508;-65
2022/09/07 09:24:45;;;;;;;14.68;2.90;;;;;;;;;;5004579;28;20048;-65
2022/09/07 09:27:11;;;;;;;11.73;2.40;;;;;;;;;;5003669;28;20109;-65
2022/09/07 09:29:37;;;;;;;17.00;3.22;;;;;;;;;;5000816;28;20048;-65
2022/09/07 09:32:22;;;;;;;18.00;2.90;;;;;;;;;;4999718;28;20035;-65
2022/09/07 09:35:02;;;;;;;17.50;3.28;;;;;;;;;;5010266;28;20026;-65
2022/09/07 09:37:35;;;;;;;16.98;2.70;;;;;;;;;;5001970;28;20569;-65
2022/09/07 09:40:01;;;;;;;18.67;3.00;;;;;;;;;;5005135;28;21310;-65
2022/09/07 09:42:29;;;;;;;18.60;2.78;;;;;;;;;;5011960;28;20024;-65
2022/09/07 09:45:01;;;;;;;10.13;2.65;;;;;;;;;;5001931;28;20044;-65
2022/09/07 09:47:31;;;;;;;15.70;2.78;;;;;;;;;;5008139;28;20034;-65
2022/09/07 09:49:59;;;;;;;15.15;2.60;;;;;;;;;;5005954;28;20136;-65
2022/09/07 09:52:25;;;;;;;20.95;3.70;;;;;;;;;;5005371;28;20109;-65
2022/09/07 09:54:55;;;;;;;17.25;3.17;;;;;;;;;;5006115;28;20036;-65
2022/09/07 09:57:40;;;;;;;13.30;2.92;;;;;;;;;;5006309;28;20026;-65
2022/09/07 10:00:14;;;;;;;12.98;2.33;;;;;;;;;;5009733;28;20073;-65
2022/09/07 10:02:40;;;;;;;19.38;3.38;;;;;;;;;;5008224;28;20048;-65
2022/09/07 10:05:33;;;;;;;13.65;2.65;;;;;;;;;;5005381;28;20076;-65
2022/09/07 10:07:59;;;;;;;16.27;3.30;;;;;;;;;;5003216;28;20124;-65
2022/09/07 10:10:26;;;;;;;19.02;3.42;;;;;;;;;;5008309;28;20488;-65
2022/09/07 10:12:53;;;;;;;13.77;3.78;;;;;;;;;;5007771;28;20030;-65
2022/09/07 10:15:30;;;;;;;23.98;3.65;;;;;;;;;;5011616;28;20029;-65
2022/09/07 10:17:58;;;;;;;16.52;3.38;;;;;;;;;;5009248;28;20046;-65
2022/09/07 10:20:33;;;;;;;18.30;3.30;;;;;;;;;;5009731;28;20026;-65
2022/09/07 10:23:00;;;;;;;12.52;2.17;;;;;;;;;;4999883;28;20589;-65
2022/09/07 10:25:26;;;;;;;13.23;3.95;;;;;;;;;;4998226;28;20038;-65
2022/09/07 10:28:14;;;;;;;12.88;2.40;;;;;;;;;;5002305;28;20044;-65
2022/09/07 10:30:45;;;;;;;14.88;2.65;;;;;;;;;;4996327;28;20379;-65
2022/09/07 10:33:15;;;;;;;18.60;3.03;;;;;;;;;;4999613;28;20077;-65
2022/09/07 10:36:11;;;;;;;13.57;2.70;;;;;;;;;;4999094;28;20474;-66
2022/09/07 10:38:41;;;;;;;14.82;2.75;;;;;;;;;;4997833;28;20065;-65
2022/09/07 10:41:09;;;;;;;18.10;2.72;;;;;;;;;;4994126;28;20088;-65
2022/09/07 10:43:43;;;;;;;14.90;2.70;;;;;;;;;;4998504;28;20032;-65
2022/09/07 10:46:27;;;;;;;19.45;2.28;;;;;;;;;;5004934;28;20112;-65
2022/09/07 10:49:03;;;;;;;13.30;3.05;;;;;;;;;;5000265;28;20600;-65
2022/09/07 10:51:52;;;;;;;11.13;2.45;;;;;;;;;;5003047;28;20030;-65
2022/09/07 10:54:19;;;;;;;9.85;2.33;;;;;;;;;;5000487;28;20034;-65
2022/09/07 10:57:06;;;;;;;13.75;2.50;;;;;;;;;;5009684;28;20030;-65
2022/09/07 10:59:43;;;;;;;21.95;3.25;;;;;;;;;;5004009;28;20035;-65
2022/09/07 11:02:17;;;;;;;14.98;2.75;;;;;;;;;;5009105;28;20057;-66
2022/09/07 11:04:45;;;;;;;9.05;2.22;;;;;;;;;;5004341;28;20041;-66
2022/09/07 11:07:33;;;;;;;11.90;3.00;;;;;;;;;;5002156;28;20080;-65
2022/09/07 11:10:12;;;;;;;16.25;3.22;;;;;;;;;;5009081;28;20056;-65
2022/09/07 11:12:39;;;;;;;11.43;2.28;;;;;;;;;;5003426;28;20033;-65
2022/09/07 11:15:11;;;;;;;9.55;2.13;;;;;;;;;;5008994;28;20065;-65
2022/09/07 11:17:45;;;;;;;17.33;3.13;;;;;;;;;;5006344;28;20630;-66
2022/09/07 11:20:27;;;;;;;14.27;3.15;;;;;;;;;;5005332;28;20038;-65
2022/09/07 11:23:05;;;;;;;18.02;2.67;;;;;;;;;;5012759;28;20057;-65
2022/09/07 11:26:01;;;;;;;10.70;2.13;;;;;;;;;;5005489;28;20160;-66
2022/09/07 11:28:30;;;;;;;9.00;2.03;;;;;;;;;;5002375;28;20042;-66
2022/09/07 11:31:02;;;;;;;8.43;2.25;;;;;;;;;;5005573;28;20088;-67
2022/09/07 11:33:34;;;;;;;13.43;1.85;;;;;;;;;;5011564;28;20030;-67
2022/09/07 11:36:06;;;;;;;10.70;2.17;;;;;;;;;;5007138;28;20026;-65
2022/09/07 11:38:38;;;;;;;9.57;3.08;;;;;;;;;;5005117;28;20292;-65
2022/09/07 11:41:04;;;;;;;9.48;2.28;;;;;;;;;;4997415;28;20748;-65
2022/09/07 11:43:34;;;;;;;12.07;2.88;;;;;;;;;;5000581;28;20048;-65
2022/09/07 11:46:07;;;;;;;18.45;2.55;;;;;;;;;;5005339;28;20092;-65
2022/09/07 11:48:36;;;;;;;15.27;2.65;;;;;;;;;;5008236;28;20033;-65
2022/09/07 11:51:04;;;;;;;11.85;2.10;;;;;;;;;;5004185;28;20517;-65
2022/09/07 11:53:33;;;;;;;10.95;2.20;;;;;;;;;;5007699;28;20478;-65
2022/09/07 11:56:02;;;;;;;12.60;2.58;;;;;;;;;;5001875;28;20162;-64
2022/09/07 11:58:34;;;;;;;18.95;2.53;;;;;;;;;;4998886;28;20034;-65
2022/09/07 12:01:19;;;;;;;14.25;2.40;;;;;;;;;;5006973;28;20034;-65
2022/09/07 12:03:58;;;;;;;6.85;1.60;;;;;;;;;;5004893;28;20036;-65
2022/09/07 12:06:46;;;;;;;14.35;2.88;;;;;;;;;;5007513;28;20034;-65
2022/09/07 12:09:18;;;;;;;16.65;2.53;;;;;;;;;;5007132;28;20057;-65
2022/09/07 12:11:44;;;;;;;10.63;2.78;;;;;;;;;;5006257;28;20042;-65
2022/09/07 12:14:22;;;;;;;15.00;2.20;;;;;;;;;;4999770;28;20508;-65
2022/09/07 12:17:04;;;;;;;9.77;2.55;;;;;;;;;;5001807;28;20022;-65
2022/09/07 12:19:30;;;;;;;9.55;2.15;;;;;;;;;;5000875;28;20026;-65
2022/09/07 12:21:58;;;;;;;14.05;2.28;;;;;;;;;;5006402;28;20038;-65
2022/09/07 12:24:39;;;;;;;8.38;2.05;;;;;;;;;;5004769;28;20042;-65
2022/09/07 12:27:09;;;;;;;10.25;2.45;;;;;;;;;;5001207;28;20041;-65
2022/09/07 12:29:35;;;;;;;11.27;2.03;;;;;;;;;;5007348;28;20758;-65
2022/09/07 12:32:02;;;;;;;11.93;2.58;;;;;;;;;;5007593;28;20030;-65
2022/09/07 12:34:31;;;;;;;11.52;2.47;;;;;;;;;;5006594;28;20033;-65
2022/09/07 12:36:58;;;;;;;10.98;2.45;;;;;;;;;;5008350;28;20491;-65
2022/09/07 12:39:27;;;;;;;13.77;2.17;;;;;;;;;;5003601;28;20026;-65
2022/09/07 12:42:05;;;;;;;12.57;2.42;;;;;;;;;;5009461;28;20456;-65
2022/09/07 12:44:32;;;;;;;11.88;2.78;;;;;;;;;;5014341;28;20027;-65
2022/09/07 12:47:02;;;;;;;13.52;2.50;;;;;;;;;;5005354;28;20034;-65
2022/09/07 12:49:45;;;;;;;15.23;2.85;;;;;;;;;;5005175;28;20041;-65
2022/09/07 12:52:17;;;;;;;18.15;2.30;;;;;;;;;;5010192;28;20037;-65
2022/09/07 12:54:50;;;;;;;15.47;2.20;;;;;;;;;;5006474;28;20029;-65
2022/09/07 12:57:16;;;;;;;16.17;2.50;;;;;;;;;;5009520;28;20380;-65
2022/09/07 12:59:42;;;;;;;15.65;2.80;;;;;;;;;;5008729;28;20022;-65
2022/09/07 13:02:09;;;;;;;18.02;3.00;;;;;;;;;;5011042;28;20026;-65
2022/09/07 13:04:41;;;;;;;24.25;3.30;;;;;;;;;;5004892;28;20112;-65
2022/09/07 13:07:10;;;;;;;9.60;1.60;;;;;;;;;;5009439;28;20080;-65
2022/09/07 13:09:40;;;;;;;8.52;1.45;;;;;;;;;;5010215;28;20034;-65
2022/09/07 13:12:24;;;;;;;8.65;1.35;;;;;;;;;;5008532;28;20057;-66
2022/09/07 13:14:52;;;;;;;6.32;1.40;;;;;;;;;;5028026;28;20022;-65
2022/09/07 13:17:35;;;;;;;6.40;1.88;;;;;;;;;;5008134;28;20030;-65
2022/09/07 13:20:01;;;;;;;7.30;1.48;;;;;;;;;;5000524;28;20534;-65
2022/09/07 13:22:30;;;;;;;8.10;1.33;;;;;;;;;;4999640;28;20037;-64
2022/09/07 13:24:58;;;;;;;9.75;1.73;;;;;;;;;;5001597;28;20029;-65
2022/09/07 13:27:43;;;;;;;10.80;2.00;;;;;;;;;;5007711;28;20475;-65
2022/09/07 13:30:15;;;;;;;13.52;2.22;;;;;;;;;;5005643;28;20030;-65
2022/09/07 13:32:42;;;;;;;14.32;2.20;;;;;;;;;;5010171;28;20029;-64
2022/09/07 13:35:12;;;;;;;9.50;2.35;;;;;;;;;;5010521;28;20124;-65
2022/09/07 13:37:46;;;;;;;8.60;2.63;;;;;;;;;;5008703;28;20037;-64
2022/09/07 13:40:15;;;;;;;14.80;2.38;;;;;;;;;;5007852;28;20041;-65
2022/09/07 13:42:42;;;;;;;14.32;1.63;;;;;;;;;;5011529;28;20029;-65
2022/09/07 13:45:45;;;;;;;19.20;2.67;;;;;;;;;;5005950;28;20025;-64
2022/09/07 13:48:18;;;;;;;17.67;3.70;;;;;;;;;;5008156;28;20160;-65
2022/09/07 13:51:03;;;;;;;19.85;2.80;;;;;;;;;;5003083;28;20277;-65
2022/09/07 13:53:36;;;;;;;11.90;2.60;;;;;;;;;;5005715;28;20037;-65
2022/09/07 13:56:24;;;;;;;13.88;2.65;;;;;;;;;;5005843;28;20095;-65
2022/09/07 13:58:51;;;;;;;13.07;2.42;;;;;;;;;;4937347;29;20396;-65
2022/09/07 14:01:17;;;;;;;12.43;1.92;;;;;;;;;;4933670;29;20048;-65
2022/09/07 14:03:43;;;;;;;9.55;2.03;;;;;;;;;;4935981;29;20047;-65
2022/09/07 14:06:25;;;;;;;9.88;2.13;;;;;;;;;;4933733;29;20036;-65
2022/09/07 14:08:53;;;;;;;5.95;1.75;;;;;;;;;;4937029;29;20047;-65
2022/09/07 14:11:19;;;;;;;11.80;1.83;;;;;;;;;;4939559;29;20043;-65
2022/09/07 14:13:45;;;;;;;7.47;1.95;;;;;;;;;;4932951;29;20122;-65
2022/09/07 14:16:11;;;;;;;6.70;1.52;;;;;;;;;;4935413;29;20475;-65
2022/09/07 14:18:39;;;;;;;9.02;1.80;;;;;;;;;;4936370;29;20617;-65
2022/09/07 14:21:08;;;;;;;6.18;1.83;;;;;;;;;;4937269;29;20028;-65
2022/09/07 14:23:35;;;;;;;9.18;1.63;;;;;;;;;;4936688;29;20044;-65
2022/09/07 14:26:07;;;;;;;9.75;1.45;;;;;;;;;;4928160;29;20027;-65
2022/09/07 14:28:36;;;;;;;6.53;1.73;;;;;;;;;;4923884;29;20040;-65
2022/09/07 14:31:04;;;;;;;9.05;1.63;;;;;;;;;;4930200;29;20028;-65
2022/09/07 14:33:31;;;;;;;8.25;1.75;;;;;;;;;;4934307;29;20191;-65
2022/09/07 14:35:57;;;;;;;5.93;1.55;;;;;;;;;;4969365;28;20096;-65
2022/09/07 14:38:24;;;;;;;7.45;1.70;;;;;;;;;;5009744;28;20037;-65
2022/09/07 14:41:00;;;;;;;4.47;1.13;;;;;;;;;;5005945;28;20022;-65
2022/09/07 14:43:28;;;;;;;8.32;1.63;;;;;;;;;;5010870;28;20018;-65
2022/09/07 14:46:07;;;;;;;8.23;2.17;;;;;;;;;;5008672;28;20041;-65
2022/09/07 14:48:33;;;;;;;8.15;1.75;;;;;;;;;;5002765;28;20064;-65